Time;durP1;ratioP1;P1;durP2;ratioP2;P2;SDS_P1;SDS_P2;PMS_P1;PMS_P2;Temp;Humidity;BMP_temperature;BMP_pressure;BME280_temperature;BME280_humidity;BME280_pressure;Samples;Min_cycle;Max_cycle;Signal;HPM_P1;HPM_P2
2022/10/28 00:01:26;;;;;;;12.82;5.43;;;;;;;;;;5059769;28;20043;-75
2022/10/28 00:03:53;;;;;;;17.10;5.70;;;;;;;;;;5061278;28;20021;-74
2022/10/28 00:06:23;;;;;;;13.82;5.60;;;;;;;;;;5057686;28;20020;-75
2022/10/28 00:08:50;;;;;;;12.35;5.45;;;;;;;;;;5054696;28;20022;-74
2022/10/28 00:11:17;;;;;;;23.23;11.57;;;;;;;;;;5060076;28;20053;-73
2022/10/28 00:13:44;;;;;;;18.00;8.93;;;;;;;;;;5060694;28;20039;-74
2022/10/28 00:16:10;;;;;;;14.95;6.72;;;;;;;;;;5060941;28;20484;-74
2022/10/28 00:18:36;;;;;;;9.88;5.47;;;;;;;;;;5043387;28;20200;-73
2022/10/28 00:21:04;;;;;;;14.23;5.78;;;;;;;;;;5059956;28;20048;-74
2022/10/28 00:23:30;;;;;;;13.65;5.72;;;;;;;;;;5055444;28;20489;-74
2022/10/28 00:26:02;;;;;;;11.38;5.22;;;;;;;;;;5054426;28;20052;-74
2022/10/28 00:28:28;;;;;;;11.88;5.13;;;;;;;;;;5053983;28;20025;-73
2022/10/28 00:30:54;;;;;;;13.57;5.32;;;;;;;;;;5053663;28;20028;-73
2022/10/28 00:33:20;;;;;;;12.50;5.35;;;;;;;;;;5053798;28;20467;-73
2022/10/28 00:35:46;;;;;;;11.52;5.70;;;;;;;;;;5055267;28;20031;-74
2022/10/28 00:38:12;;;;;;;14.73;5.68;;;;;;;;;;5056631;28;20024;-74
2022/10/28 00:40:38;;;;;;;11.25;5.35;;;;;;;;;;5054823;28;20028;-75
2022/10/28 00:43:04;;;;;;;14.85;5.03;;;;;;;;;;5053325;28;20032;-74
2022/10/28 00:45:30;;;;;;;17.38;5.65;;;;;;;;;;5053022;28;20107;-73
2022/10/28 00:48:01;;;;;;;15.75;5.88;;;;;;;;;;5053406;28;20095;-74
2022/10/28 00:50:27;;;;;;;17.70;5.25;;;;;;;;;;5053386;28;20036;-74
2022/10/28 00:53:00;;;;;;;18.77;6.32;;;;;;;;;;5053643;28;20025;-74
2022/10/28 00:55:26;;;;;;;8.30;4.93;;;;;;;;;;5053021;28;20090;-73
2022/10/28 00:57:55;;;;;;;13.35;5.78;;;;;;;;;;5053239;28;20100;-74
2022/10/28 01:00:22;;;;;;;13.40;5.43;;;;;;;;;;5053661;28;20375;-74
2022/10/28 01:02:49;;;;;;;15.18;5.88;;;;;;;;;;5053622;28;20044;-73
2022/10/28 01:05:16;;;;;;;13.80;5.55;;;;;;;;;;5053313;28;20080;-74
2022/10/28 01:07:43;;;;;;;15.05;5.50;;;;;;;;;;5053081;28;20078;-74
2022/10/28 01:10:10;;;;;;;13.13;5.45;;;;;;;;;;5053074;28;20379;-74
2022/10/28 01:12:50;;;;;;;18.02;5.47;;;;;;;;;;5053096;28;20071;-73
2022/10/28 01:15:24;;;;;;;13.10;5.10;;;;;;;;;;5087747;22;20052;-76
2022/10/28 01:17:53;;;;;;;16.60;5.18;;;;;;;;;;5072067;28;20033;-76
2022/10/28 01:20:38;;;;;;;17.33;5.53;;;;;;;;;;5073299;28;20022;-77
2022/10/28 01:23:07;;;;;;;19.20;5.78;;;;;;;;;;5072905;28;20021;-77
2022/10/28 01:25:44;;;;;;;12.45;5.80;;;;;;;;;;5073022;28;20020;-76
2022/10/28 01:28:16;;;;;;;19.77;7.00;;;;;;;;;;5073930;28;20024;-75
2022/10/28 01:31:05;;;;;;;16.70;6.15;;;;;;;;;;5072322;28;20580;-76
2022/10/28 01:33:34;;;;;;;12.60;5.10;;;;;;;;;;5073213;28;20077;-76
2022/10/28 01:36:06;;;;;;;12.63;5.30;;;;;;;;;;5073245;28;20416;-77
2022/10/28 01:38:38;;;;;;;13.25;4.88;;;;;;;;;;5076239;28;20099;-76
2022/10/28 01:41:07;;;;;;;13.30;5.13;;;;;;;;;;5080406;28;20048;-77
2022/10/28 01:43:48;;;;;;;16.10;5.40;;;;;;;;;;5071865;28;20433;-77
2022/10/28 01:46:24;;;;;;;13.18;5.82;;;;;;;;;;5071974;28;20110;-76
2022/10/28 01:48:53;;;;;;;13.70;5.28;;;;;;;;;;5073296;28;20024;-77
2022/10/28 01:51:21;;;;;;;16.75;5.82;;;;;;;;;;5072633;28;20481;-77
2022/10/28 01:53:50;;;;;;;19.42;5.95;;;;;;;;;;5072384;28;20036;-77
2022/10/28 01:56:20;;;;;;;15.23;5.28;;;;;;;;;;5070734;28;20479;-76
2022/10/28 01:58:47;;;;;;;14.68;5.38;;;;;;;;;;5072202;28;20108;-77
2022/10/28 02:01:13;;;;;;;18.63;5.88;;;;;;;;;;5072315;28;20457;-77
2022/10/28 02:03:39;;;;;;;14.77;5.85;;;;;;;;;;5072279;28;20031;-76
2022/10/28 02:06:07;;;;;;;13.32;5.18;;;;;;;;;;5072336;28;20021;-76
2022/10/28 02:08:52;;;;;;;16.38;5.90;;;;;;;;;;5072533;28;20054;-76
2022/10/28 02:11:21;;;;;;;13.43;5.43;;;;;;;;;;5072743;28;20115;-77
2022/10/28 02:13:50;;;;;;;13.63;5.13;;;;;;;;;;5074060;28;20032;-76
2022/10/28 02:16:16;;;;;;;17.10;5.25;;;;;;;;;;5073038;28;20040;-77
2022/10/28 02:18:52;;;;;;;17.40;5.60;;;;;;;;;;5073074;28;20103;-76
2022/10/28 02:21:33;;;;;;;12.25;5.05;;;;;;;;;;5073007;28;20077;-77
2022/10/28 02:24:04;;;;;;;13.43;4.93;;;;;;;;;;5072149;28;20099;-77
2022/10/28 02:26:30;;;;;;;11.18;4.80;;;;;;;;;;5072459;28;20154;-76
2022/10/28 02:29:02;;;;;;;15.30;5.00;;;;;;;;;;5072454;28;20070;-77
2022/10/28 02:31:27;;;;;;;12.60;4.88;;;;;;;;;;5072501;28;20089;-76
2022/10/28 02:33:56;;;;;;;14.40;4.65;;;;;;;;;;5072246;28;20100;-76
2022/10/28 02:36:24;;;;;;;18.02;6.30;;;;;;;;;;5072192;28;20024;-76
2022/10/28 02:38:53;;;;;;;13.27;5.55;;;;;;;;;;5070908;28;20027;-77
2022/10/28 02:41:21;;;;;;;18.60;5.40;;;;;;;;;;5072253;28;20427;-77
2022/10/28 02:43:50;;;;;;;9.32;4.70;;;;;;;;;;5072522;28;20028;-77
2022/10/28 02:46:17;;;;;;;17.27;4.82;;;;;;;;;;5071477;28;20020;-76
2022/10/28 02:48:52;;;;;;;19.50;5.65;;;;;;;;;;5072274;28;20087;-76
2022/10/28 02:51:19;;;;;;;14.38;4.93;;;;;;;;;;5072457;28;20485;-77
2022/10/28 02:53:48;;;;;;;13.30;5.72;;;;;;;;;;5072799;28;20055;-77
2022/10/28 02:56:15;;;;;;;16.08;5.63;;;;;;;;;;5072766;28;20524;-77
2022/10/28 02:58:41;;;;;;;25.60;9.90;;;;;;;;;;5072831;28;20032;-77
2022/10/28 03:01:07;;;;;;;17.95;6.30;;;;;;;;;;5072222;28;20036;-76
2022/10/28 03:03:33;;;;;;;15.63;5.70;;;;;;;;;;5072920;28;20021;-77
2022/10/28 03:05:59;;;;;;;15.73;5.35;;;;;;;;;;5072469;28;20580;-77
2022/10/28 03:08:25;;;;;;;16.77;6.43;;;;;;;;;;5072244;28;20492;-76
2022/10/28 03:10:51;;;;;;;15.18;5.35;;;;;;;;;;5071343;28;20384;-76
2022/10/28 03:13:17;;;;;;;17.00;5.85;;;;;;;;;;5074184;28;20105;-76
2022/10/28 03:15:43;;;;;;;17.88;5.78;;;;;;;;;;5073189;28;20032;-77
2022/10/28 03:18:09;;;;;;;14.05;5.57;;;;;;;;;;5073860;28;20101;-78
2022/10/28 03:20:34;;;;;;;14.23;6.00;;;;;;;;;;5073797;28;20369;-77
2022/10/28 03:23:01;;;;;;;18.55;6.25;;;;;;;;;;5072542;28;20028;-77
2022/10/28 03:25:27;;;;;;;18.10;6.88;;;;;;;;;;5072301;28;20431;-77
2022/10/28 03:27:53;;;;;;;19.13;7.00;;;;;;;;;;5073289;28;20028;-77
2022/10/28 03:30:19;;;;;;;17.80;7.30;;;;;;;;;;5075521;28;20027;-76
2022/10/28 03:32:45;;;;;;;15.15;7.57;;;;;;;;;;5075018;28;20024;-77
2022/10/28 03:35:11;;;;;;;19.70;6.63;;;;;;;;;;5075415;28;20043;-77
2022/10/28 03:37:36;;;;;;;12.93;6.65;;;;;;;;;;5073820;28;20024;-77
2022/10/28 03:40:06;;;;;;;11.18;6.40;;;;;;;;;;5075626;28;20096;-76
2022/10/28 03:42:33;;;;;;;21.08;7.63;;;;;;;;;;5075744;28;20024;-76
2022/10/28 03:44:58;;;;;;;21.17;7.70;;;;;;;;;;5075586;28;20066;-77
2022/10/28 03:47:24;;;;;;;16.10;6.95;;;;;;;;;;5075984;28;20024;-77
2022/10/28 03:49:50;;;;;;;21.42;7.68;;;;;;;;;;5075794;28;20024;-77
2022/10/28 03:52:16;;;;;;;16.35;6.90;;;;;;;;;;5077119;28;20396;-77
2022/10/28 03:54:42;;;;;;;24.17;8.15;;;;;;;;;;5089678;28;20016;-76
2022/10/28 03:57:08;;;;;;;19.83;7.88;;;;;;;;;;5092813;28;20035;-76
2022/10/28 03:59:34;;;;;;;28.38;7.70;;;;;;;;;;5094321;28;20117;-76
2022/10/28 04:02:00;;;;;;;18.23;8.55;;;;;;;;;;5081832;28;20036;-77
2022/10/28 04:04:26;;;;;;;22.13;9.23;;;;;;;;;;5077484;28;20030;-77
2022/10/28 04:06:52;;;;;;;22.48;8.65;;;;;;;;;;5079411;28;20047;-76
2022/10/28 04:09:18;;;;;;;19.15;8.60;;;;;;;;;;5077423;28;20477;-77
2022/10/28 04:11:47;;;;;;;17.63;7.55;;;;;;;;;;5075243;28;20492;-77
2022/10/28 04:14:13;;;;;;;21.27;7.70;;;;;;;;;;5075689;28;20031;-77
2022/10/28 04:16:38;;;;;;;17.00;8.55;;;;;;;;;;5075623;28;20120;-76
2022/10/28 04:19:04;;;;;;;15.57;7.25;;;;;;;;;;5076320;28;20033;-77
2022/10/28 04:21:30;;;;;;;17.25;7.13;;;;;;;;;;5076316;28;20370;-78
2022/10/28 04:23:56;;;;;;;18.75;7.10;;;;;;;;;;5075887;28;20017;-75
2022/10/28 04:26:22;;;;;;;16.67;7.05;;;;;;;;;;5075913;28;20107;-75
2022/10/28 04:28:48;;;;;;;20.70;6.72;;;;;;;;;;5076000;28;20035;-77
2022/10/28 04:31:14;;;;;;;24.02;7.57;;;;;;;;;;5075058;28;20029;-77
2022/10/28 04:33:40;;;;;;;17.30;7.47;;;;;;;;;;5074992;28;20028;-76
2022/10/28 04:36:06;;;;;;;21.60;7.30;;;;;;;;;;5075957;28;20020;-77
2022/10/28 04:38:32;;;;;;;25.85;8.00;;;;;;;;;;5072274;28;20337;-77
2022/10/28 04:40:58;;;;;;;24.00;8.25;;;;;;;;;;5074097;28;20060;-77
2022/10/28 04:43:24;;;;;;;23.65;7.90;;;;;;;;;;5074311;28;20025;-77
2022/10/28 04:45:50;;;;;;;28.90;9.13;;;;;;;;;;5073100;28;20032;-77
2022/10/28 04:48:16;;;;;;;16.45;8.43;;;;;;;;;;5074445;28;20029;-77
2022/10/28 04:50:42;;;;;;;22.48;8.90;;;;;;;;;;5075838;28;20031;-77
2022/10/28 04:53:08;;;;;;;19.77;8.55;;;;;;;;;;5076335;28;20529;-78
2022/10/28 04:55:34;;;;;;;14.85;8.13;;;;;;;;;;5086070;28;20016;-76
2022/10/28 04:58:00;;;;;;;19.27;7.88;;;;;;;;;;5093189;28;20076;-77
2022/10/28 05:00:27;;;;;;;17.65;7.43;;;;;;;;;;5075982;28;20511;-77
2022/10/28 05:02:53;;;;;;;16.33;7.10;;;;;;;;;;5074485;28;20032;-77
2022/10/28 05:05:19;;;;;;;17.83;6.80;;;;;;;;;;5074105;28;20020;-78
2022/10/28 05:07:45;;;;;;;17.52;7.05;;;;;;;;;;5075628;28;20023;-77
2022/10/28 05:10:11;;;;;;;23.85;8.25;;;;;;;;;;5074614;28;20020;-77
2022/10/28 05:12:40;;;;;;;21.10;7.95;;;;;;;;;;5074546;28;20075;-77
2022/10/28 05:15:07;;;;;;;21.23;7.93;;;;;;;;;;5075385;28;20127;-77
2022/10/28 05:17:33;;;;;;;20.10;8.10;;;;;;;;;;5075127;28;20028;-77
2022/10/28 05:19:59;;;;;;;17.77;7.45;;;;;;;;;;5075961;28;20118;-77
2022/10/28 05:22:25;;;;;;;19.38;8.20;;;;;;;;;;5075038;28;20098;-77
2022/10/28 05:24:51;;;;;;;14.85;7.13;;;;;;;;;;5074420;28;20108;-77
2022/10/28 05:27:17;;;;;;;26.25;7.72;;;;;;;;;;5076709;28;20074;-76
2022/10/28 05:29:42;;;;;;;17.45;7.82;;;;;;;;;;5075973;28;20444;-78
2022/10/28 05:32:08;;;;;;;20.70;7.28;;;;;;;;;;5077939;28;20086;-77
2022/10/28 05:34:35;;;;;;;19.42;7.72;;;;;;;;;;5076469;28;20071;-76
2022/10/28 05:37:01;;;;;;;19.65;8.77;;;;;;;;;;5078240;28;20036;-77
2022/10/28 05:39:26;;;;;;;16.90;7.50;;;;;;;;;;5080175;28;20028;-77
2022/10/28 05:41:52;;;;;;;18.75;7.38;;;;;;;;;;5077091;28;20113;-75
2022/10/28 05:44:18;;;;;;;22.10;7.32;;;;;;;;;;5074369;28;20027;-77
2022/10/28 05:46:44;;;;;;;17.52;7.35;;;;;;;;;;5073892;28;20027;-77
2022/10/28 05:49:10;;;;;;;21.50;7.43;;;;;;;;;;5075921;28;20055;-77
2022/10/28 05:51:36;;;;;;;20.70;8.60;;;;;;;;;;5073407;28;20021;-76
2022/10/28 05:54:02;;;;;;;21.58;8.25;;;;;;;;;;5073456;28;20086;-77
2022/10/28 05:56:28;;;;;;;19.75;7.88;;;;;;;;;;5074360;28;20355;-76
2022/10/28 05:58:54;;;;;;;23.60;8.00;;;;;;;;;;5074308;28;20068;-76
2022/10/28 06:01:20;;;;;;;20.52;7.57;;;;;;;;;;5072335;28;20025;-77
2022/10/28 06:03:46;;;;;;;25.88;10.68;;;;;;;;;;5073031;28;20095;-76
2022/10/28 06:06:12;;;;;;;24.65;9.48;;;;;;;;;;5074257;28;20492;-76
2022/10/28 06:08:38;;;;;;;19.70;7.65;;;;;;;;;;5074976;28;20434;-77
2022/10/28 06:11:04;;;;;;;22.10;8.57;;;;;;;;;;5075853;28;20036;-78
2022/10/28 06:13:29;;;;;;;17.92;8.55;;;;;;;;;;5086491;28;20107;-76
2022/10/28 06:15:56;;;;;;;18.85;7.97;;;;;;;;;;5080876;28;20033;-74
2022/10/28 06:18:23;;;;;;;27.00;9.43;;;;;;;;;;5091028;28;20025;-76
2022/10/28 06:20:52;;;;;;;26.90;9.32;;;;;;;;;;5093500;28;20036;-77
2022/10/28 06:23:18;;;;;;;27.75;7.78;;;;;;;;;;5094855;28;20028;-76
2022/10/28 06:25:44;;;;;;;23.42;8.80;;;;;;;;;;5095666;28;20476;-76
2022/10/28 06:28:10;;;;;;;22.55;8.60;;;;;;;;;;5092289;28;20044;-76
2022/10/28 06:30:36;;;;;;;22.15;8.35;;;;;;;;;;5075254;28;20020;-77
2022/10/28 06:33:02;;;;;;;22.25;8.48;;;;;;;;;;5075095;28;20028;-77
2022/10/28 06:35:28;;;;;;;26.40;9.25;;;;;;;;;;5073137;28;20060;-75
2022/10/28 06:37:55;;;;;;;19.85;8.75;;;;;;;;;;5077819;28;20082;-75
2022/10/28 06:40:21;;;;;;;31.42;9.60;;;;;;;;;;5083615;28;20043;-77
2022/10/28 06:42:47;;;;;;;24.00;8.70;;;;;;;;;;5085573;28;20048;-77
2022/10/28 06:45:13;;;;;;;22.92;8.48;;;;;;;;;;5089217;28;20039;-76
2022/10/28 06:47:39;;;;;;;19.80;8.45;;;;;;;;;;5089689;28;20025;-76
2022/10/28 06:50:05;;;;;;;26.73;8.73;;;;;;;;;;5087294;28;20036;-77
2022/10/28 06:52:31;;;;;;;23.45;8.70;;;;;;;;;;5080154;28;20024;-78
2022/10/28 06:54:57;;;;;;;17.10;8.40;;;;;;;;;;5077274;28;20052;-77
2022/10/28 06:57:23;;;;;;;20.90;9.05;;;;;;;;;;5080660;28;20111;-77
2022/10/28 06:59:49;;;;;;;25.13;8.70;;;;;;;;;;5080605;28;20028;-76
2022/10/28 07:02:15;;;;;;;28.02;8.88;;;;;;;;;;5079535;28;20024;-78
2022/10/28 07:04:41;;;;;;;18.95;7.82;;;;;;;;;;5079693;28;20032;-77
2022/10/28 07:07:07;;;;;;;21.33;8.50;;;;;;;;;;5078825;28;20048;-76
2022/10/28 07:09:35;;;;;;;29.48;9.85;;;;;;;;;;5081195;28;20025;-77
2022/10/28 07:12:01;;;;;;;28.50;9.77;;;;;;;;;;5080145;28;20548;-77
2022/10/28 07:14:27;;;;;;;24.15;9.93;;;;;;;;;;5105054;22;20063;-75
2022/10/28 07:16:53;;;;;;;23.60;10.68;;;;;;;;;;5054675;28;20060;-76
2022/10/28 07:19:19;;;;;;;24.35;8.45;;;;;;;;;;5055762;28;20086;-76
2022/10/28 07:21:46;;;;;;;18.73;7.75;;;;;;;;;;5055555;28;20029;-75
2022/10/28 07:24:12;;;;;;;20.88;8.00;;;;;;;;;;5037643;28;20124;-76
2022/10/28 07:26:38;;;;;;;29.77;8.15;;;;;;;;;;5054815;28;20064;-75
2022/10/28 07:29:04;;;;;;;21.13;8.38;;;;;;;;;;5055293;28;20079;-75
2022/10/28 07:31:30;;;;;;;20.63;7.70;;;;;;;;;;5055465;28;20476;-75
2022/10/28 07:33:56;;;;;;;30.40;8.80;;;;;;;;;;5037866;28;20076;-75
2022/10/28 07:36:22;;;;;;;23.42;9.57;;;;;;;;;;5054857;28;20036;-76
2022/10/28 07:38:50;;;;;;;28.55;10.57;;;;;;;;;;5057051;28;20021;-77
2022/10/28 07:41:16;;;;;;;29.55;10.05;;;;;;;;;;5041696;28;20415;-76
2022/10/28 07:43:42;;;;;;;28.02;10.55;;;;;;;;;;5056473;28;20461;-76
2022/10/28 07:46:08;;;;;;;20.73;9.20;;;;;;;;;;5054120;28;20055;-75
2022/10/28 07:48:37;;;;;;;21.63;8.68;;;;;;;;;;5054505;28;20051;-74
2022/10/28 07:51:04;;;;;;;31.83;8.35;;;;;;;;;;5054408;28;20025;-75
2022/10/28 07:53:30;;;;;;;24.85;7.63;;;;;;;;;;5055127;28;20021;-75
2022/10/28 07:55:57;;;;;;;24.17;7.32;;;;;;;;;;5056338;28;20100;-75
2022/10/28 07:58:23;;;;;;;21.45;8.55;;;;;;;;;;5054537;28;20124;-75
2022/10/28 08:00:49;;;;;;;21.60;7.57;;;;;;;;;;5036393;28;20438;-76
2022/10/28 08:03:15;;;;;;;17.13;6.40;;;;;;;;;;5054063;28;20033;-75
2022/10/28 08:05:41;;;;;;;22.20;6.57;;;;;;;;;;5054095;28;20463;-76
2022/10/28 08:08:07;;;;;;;24.83;6.38;;;;;;;;;;5054268;28;20405;-77
2022/10/28 08:10:33;;;;;;;27.27;7.43;;;;;;;;;;5055005;28;20544;-76
2022/10/28 08:12:59;;;;;;;20.10;7.40;;;;;;;;;;5055866;28;20389;-76
2022/10/28 08:15:25;;;;;;;19.77;5.97;;;;;;;;;;5059522;28;20033;-78
2022/10/28 08:17:52;;;;;;;40.30;14.75;;;;;;;;;;5054480;28;20032;-75
2022/10/28 08:20:18;;;;;;;24.27;10.35;;;;;;;;;;5055766;28;20033;-75
2022/10/28 08:22:44;;;;;;;17.65;6.47;;;;;;;;;;5055828;28;20032;-76
2022/10/28 08:25:10;;;;;;;25.83;5.63;;;;;;;;;;5055649;28;20115;-75
2022/10/28 08:27:36;;;;;;;35.28;6.22;;;;;;;;;;5064678;28;20024;-75
2022/10/28 08:30:04;;;;;;;18.73;5.30;;;;;;;;;;5068140;28;20021;-76
2022/10/28 08:32:30;;;;;;;15.63;5.60;;;;;;;;;;5061954;28;20032;-76
2022/10/28 08:34:56;;;;;;;22.55;6.45;;;;;;;;;;5054011;28;20105;-75
2022/10/28 08:37:22;;;;;;;25.55;6.45;;;;;;;;;;5053493;28;20102;-76
2022/10/28 08:39:48;;;;;;;21.45;5.97;;;;;;;;;;5054071;28;20053;-75
2022/10/28 08:42:21;;;;;;;25.60;5.65;;;;;;;;;;5054463;28;20039;-76
2022/10/28 08:44:53;;;;;;;24.08;5.75;;;;;;;;;;5035597;28;20104;-76
2022/10/28 08:47:45;;;;;;;19.70;5.28;;;;;;;;;;5052994;28;20079;-76
2022/10/28 08:50:11;;;;;;;15.75;5.00;;;;;;;;;;5053284;28;20021;-77
2022/10/28 08:52:40;;;;;;;20.92;5.40;;;;;;;;;;5053109;28;20025;-76
2022/10/28 08:55:11;;;;;;;25.48;5.90;;;;;;;;;;5053032;28;20072;-76
2022/10/28 08:57:40;;;;;;;19.65;6.18;;;;;;;;;;5053144;28;20029;-75
2022/10/28 09:00:07;;;;;;;21.65;6.10;;;;;;;;;;5053235;28;20032;-76
2022/10/28 09:02:44;;;;;;;23.02;6.20;;;;;;;;;;5053246;28;20111;-76
2022/10/28 09:05:20;;;;;;;36.33;5.80;;;;;;;;;;5053419;28;20029;-77
2022/10/28 09:07:46;;;;;;;25.33;5.03;;;;;;;;;;5035669;28;20021;-75
2022/10/28 09:10:14;;;;;;;27.02;5.28;;;;;;;;;;5053652;28;20094;-76
2022/10/28 09:12:53;;;;;;;25.60;5.40;;;;;;;;;;5054391;28;20497;-76
2022/10/28 09:15:24;;;;;;;23.13;4.93;;;;;;;;;;5054261;28;20474;-76
2022/10/28 09:17:53;;;;;;;16.13;5.05;;;;;;;;;;5062443;28;20147;-75
2022/10/28 09:20:20;;;;;;;20.40;5.43;;;;;;;;;;5043727;28;20121;-76
2022/10/28 09:22:49;;;;;;;26.17;5.80;;;;;;;;;;5062686;28;20494;-75
2022/10/28 09:25:23;;;;;;;19.88;4.65;;;;;;;;;;5055302;28;20021;-76
2022/10/28 09:27:55;;;;;;;22.63;4.80;;;;;;;;;;5055749;28;20543;-75
2022/10/28 09:30:21;;;;;;;24.63;5.35;;;;;;;;;;5058628;28;20084;-77
2022/10/28 09:32:59;;;;;;;20.92;4.55;;;;;;;;;;5059977;28;20025;-76
2022/10/28 09:35:27;;;;;;;21.65;4.88;;;;;;;;;;5059831;28;20021;-75
2022/10/28 09:38:01;;;;;;;19.15;4.82;;;;;;;;;;5053640;28;20025;-77
2022/10/28 09:40:27;;;;;;;;;;;;;;;;;;5056391;28;20074;-75
2022/10/28 09:43:12;;;;;;;20.17;4.30;;;;;;;;;;5056474;28;20358;-76
2022/10/28 09:45:42;;;;;;;23.60;5.03;;;;;;;;;;5056285;28;20021;-75
2022/10/28 09:48:13;;;;;;;25.45;4.55;;;;;;;;;;5060409;28;20033;-75
2022/10/28 09:50:40;;;;;;;16.60;4.13;;;;;;;;;;5061527;28;20120;-74
2022/10/28 09:53:26;;;;;;;20.13;4.18;;;;;;;;;;5042710;28;20021;-75
2022/10/28 09:55:52;;;;;;;15.50;4.60;;;;;;;;;;5046569;28;20044;-77
2022/10/28 09:58:18;;;;;;;18.55;4.38;;;;;;;;;;5040871;28;20025;-75
2022/10/28 10:00:44;;;;;;;23.40;4.60;;;;;;;;;;5054034;28;20039;-76
2022/10/28 10:03:10;;;;;;;19.45;4.93;;;;;;;;;;5053313;28;20497;-75
2022/10/28 10:05:46;;;;;;;22.60;5.57;;;;;;;;;;5052015;28;20021;-76
2022/10/28 10:08:17;;;;;;;13.40;4.05;;;;;;;;;;5052029;28;20021;-75
2022/10/28 10:10:54;;;;;;;18.92;4.45;;;;;;;;;;5052155;28;20453;-76
2022/10/28 10:13:23;;;;;;;24.73;5.03;;;;;;;;;;5052426;28;20067;-76
2022/10/28 10:15:52;;;;;;;23.95;4.95;;;;;;;;;;5052145;28;20044;-74
2022/10/28 10:18:22;;;;;;;21.75;4.55;;;;;;;;;;5052586;28;20033;-76
2022/10/28 10:20:49;;;;;;;26.05;4.85;;;;;;;;;;5034987;28;20029;-75
2022/10/28 10:23:22;;;;;;;24.15;4.45;;;;;;;;;;5052731;28;20036;-76
2022/10/28 10:25:53;;;;;;;19.35;4.68;;;;;;;;;;5054208;28;20155;-76
2022/10/28 10:28:20;;;;;;;20.42;4.78;;;;;;;;;;5056316;28;20025;-78
2022/10/28 10:30:51;;;;;;;19.70;4.00;;;;;;;;;;5066810;28;20029;-75
2022/10/28 10:33:23;;;;;;;14.57;4.20;;;;;;;;;;5044437;28;20033;-75
2022/10/28 10:35:53;;;;;;;18.05;4.90;;;;;;;;;;5063734;28;20037;-75
2022/10/28 10:38:19;;;;;;;15.68;3.72;;;;;;;;;;5058832;28;20078;-76
2022/10/28 10:40:49;;;;;;;15.40;4.00;;;;;;;;;;5038365;28;20028;-76
2022/10/28 10:43:23;;;;;;;17.63;3.97;;;;;;;;;;5040549;28;20370;-76
2022/10/28 10:45:59;;;;;;;19.05;4.40;;;;;;;;;;5062176;28;20021;-76
2022/10/28 10:48:25;;;;;;;27.83;4.95;;;;;;;;;;5061905;28;20047;-76
2022/10/28 10:50:52;;;;;;;18.90;5.15;;;;;;;;;;5063089;28;20312;-76
2022/10/28 10:53:23;;;;;;;26.33;5.00;;;;;;;;;;5061396;28;20136;-75
2022/10/28 10:55:54;;;;;;;24.63;4.18;;;;;;;;;;5063949;28;20040;-76
2022/10/28 10:58:21;;;;;;;22.88;4.65;;;;;;;;;;5038480;28;20029;-75
2022/10/28 11:00:49;;;;;;;14.38;3.35;;;;;;;;;;5055777;28;20496;-76
2022/10/28 11:03:24;;;;;;;20.77;4.03;;;;;;;;;;5058395;28;20028;-78
2022/10/28 11:05:53;;;;;;;19.42;4.13;;;;;;;;;;5055303;28;20021;-75
2022/10/28 11:08:27;;;;;;;20.35;4.50;;;;;;;;;;5039227;28;20028;-77
2022/10/28 11:11:13;;;;;;;14.25;3.92;;;;;;;;;;5055664;28;20374;-76
2022/10/28 11:13:39;;;;;;;15.00;4.53;;;;;;;;;;5059968;28;20033;-77
2022/10/28 11:16:07;;;;;;;16.73;3.78;;;;;;;;;;5060532;28;20055;-75
2022/10/28 11:18:43;;;;;;;23.15;4.68;;;;;;;;;;5058847;28;20033;-77
2022/10/28 11:21:28;;;;;;;26.35;4.60;;;;;;;;;;5055621;28;20077;-76
2022/10/28 11:23:53;;;;;;;;;;;;;;;;;;5055805;28;20029;-76
2022/10/28 11:26:21;;;;;;;20.50;4.43;;;;;;;;;;5054944;28;20003;-76
2022/10/28 11:28:50;;;;;;;15.00;4.28;;;;;;;;;;5055620;28;20033;-75
2022/10/28 11:31:16;;;;;;;16.42;4.10;;;;;;;;;;5055156;28;20024;-75
2022/10/28 11:33:46;;;;;;;19.30;4.93;;;;;;;;;;5054828;28;20036;-75
2022/10/28 11:36:20;;;;;;;19.70;4.80;;;;;;;;;;5058603;28;20490;-76
2022/10/28 11:38:46;;;;;;;27.55;4.90;;;;;;;;;;5059689;28;20096;-77
2022/10/28 11:41:30;;;;;;;20.60;4.50;;;;;;;;;;5055313;28;20495;-76
2022/10/28 11:43:59;;;;;;;16.65;4.32;;;;;;;;;;5056978;28;20025;-76
2022/10/28 11:46:31;;;;;;;20.33;5.03;;;;;;;;;;5041892;28;20143;-76
2022/10/28 11:49:07;;;;;;;16.00;4.30;;;;;;;;;;5058505;28;20473;-76
2022/10/28 11:51:41;;;;;;;19.83;4.90;;;;;;;;;;5057507;28;20107;-75
2022/10/28 11:54:16;;;;;;;22.45;5.00;;;;;;;;;;5055654;28;20044;-77
2022/10/28 11:56:42;;;;;;;25.85;4.53;;;;;;;;;;5055506;28;20028;-76
2022/10/28 11:59:11;;;;;;;23.45;5.00;;;;;;;;;;5037355;28;20033;-76
2022/10/28 12:01:44;;;;;;;26.75;6.00;;;;;;;;;;5055256;28;20277;-76
2022/10/28 12:04:13;;;;;;;26.25;4.85;;;;;;;;;;5054797;28;20096;-76
2022/10/28 12:06:58;;;;;;;16.13;4.35;;;;;;;;;;5037841;28;20021;-76
2022/10/28 12:09:28;;;;;;;17.83;4.45;;;;;;;;;;5055510;28;20017;-76
2022/10/28 12:12:03;;;;;;;18.65;4.53;;;;;;;;;;5055896;28;20044;-77
2022/10/28 12:14:48;;;;;;;25.65;5.97;;;;;;;;;;5055794;28;20060;-77
2022/10/28 12:17:22;;;;;;;28.10;12.90;;;;;;;;;;5037942;28;20020;-77
2022/10/28 12:19:54;;;;;;;38.60;12.00;;;;;;;;;;5055484;28;20036;-78
2022/10/28 12:22:46;;;;;;;25.88;5.95;;;;;;;;;;5055157;28;20029;-76
2022/10/28 12:25:17;;;;;;;24.65;5.53;;;;;;;;;;5051228;28;20037;-76
2022/10/28 12:27:45;;;;;;;33.75;10.38;;;;;;;;;;5036727;28;20092;-75
2022/10/28 12:30:23;;;;;;;21.23;5.03;;;;;;;;;;5054428;28;20037;-78
2022/10/28 12:33:13;;;;;;;23.80;4.63;;;;;;;;;;5038031;28;20028;-76
2022/10/28 12:35:44;;;;;;;25.02;4.72;;;;;;;;;;5038473;28;20033;-77
2022/10/28 12:38:22;;;;;;;28.50;7.50;;;;;;;;;;5059605;28;20381;-76
2022/10/28 12:41:11;;;;;;;29.83;8.35;;;;;;;;;;5063432;28;20029;-75
2022/10/28 12:43:44;;;;;;;17.15;4.57;;;;;;;;;;5063424;28;20028;-77
2022/10/28 12:46:30;;;;;;;27.65;4.97;;;;;;;;;;5046246;28;20032;-76
2022/10/28 12:48:58;;;;;;;28.52;7.70;;;;;;;;;;5055060;28;20021;-76
2022/10/28 12:51:29;;;;;;;40.17;13.90;;;;;;;;;;5055268;28;20044;-77
2022/10/28 12:54:02;;;;;;;18.15;5.32;;;;;;;;;;5056284;28;20055;-77
2022/10/28 12:56:40;;;;;;;22.70;5.65;;;;;;;;;;5056276;28;20116;-77
2022/10/28 12:59:10;;;;;;;22.60;5.47;;;;;;;;;;5055015;28;20086;-76
2022/10/28 13:01:37;;;;;;;25.52;5.70;;;;;;;;;;5056964;28;20064;-78
2022/10/28 13:04:03;;;;;;;22.25;5.22;;;;;;;;;;5039502;28;20431;-75
2022/10/28 13:06:52;;;;;;;26.08;6.00;;;;;;;;;;5059735;28;20428;-76
2022/10/28 13:09:36;;;;;;;23.08;5.22;;;;;;;;;;5062616;28;20029;-78
2022/10/28 13:12:12;;;;;;;27.05;5.07;;;;;;;;;;5068640;28;20036;-75
2022/10/28 13:14:38;;;;;;;18.75;4.78;;;;;;;;;;5069242;28;20025;-75
2022/10/28 13:17:13;;;;;;;28.48;5.60;;;;;;;;;;5093066;22;20066;-74
2022/10/28 13:20:00;;;;;;;22.95;4.72;;;;;;;;;;5073070;28;20024;-73
2022/10/28 13:22:45;;;;;;;19.85;5.05;;;;;;;;;;5073553;28;20086;-73
2022/10/28 13:25:21;;;;;;;22.95;5.43;;;;;;;;;;5073752;28;20052;-73
2022/10/28 13:27:47;;;;;;;20.40;8.05;;;;;;;;;;5073150;28;20025;-75
2022/10/28 13:30:16;;;;;;;18.98;4.80;;;;;;;;;;5071789;28;20050;-73
2022/10/28 13:32:42;;;;;;;22.20;4.65;;;;;;;;;;5073005;28;20052;-74
2022/10/28 13:35:11;;;;;;;23.65;5.28;;;;;;;;;;5073371;28;20032;-73
2022/10/28 13:37:38;;;;;;;23.70;5.13;;;;;;;;;;5072847;28;20047;-74
2022/10/28 13:40:04;;;;;;;32.67;5.30;;;;;;;;;;5073143;28;20477;-75
2022/10/28 13:42:31;;;;;;;24.10;4.88;;;;;;;;;;5073020;28;20028;-73
2022/10/28 13:45:02;;;;;;;25.70;4.85;;;;;;;;;;5073158;28;20103;-74
2022/10/28 13:47:30;;;;;;;23.77;5.00;;;;;;;;;;5073267;28;20381;-74
2022/10/28 13:50:05;;;;;;;24.92;5.47;;;;;;;;;;5072960;28;20020;-74
2022/10/28 13:52:32;;;;;;;25.88;6.00;;;;;;;;;;5074154;28;20024;-73
2022/10/28 13:54:58;;;;;;;23.60;5.15;;;;;;;;;;5073280;28;20028;-73
2022/10/28 13:57:33;;;;;;;26.10;5.72;;;;;;;;;;5073058;28;20032;-73
2022/10/28 14:00:05;;;;;;;26.27;5.47;;;;;;;;;;5072418;28;20025;-74
2022/10/28 14:02:36;;;;;;;16.88;4.97;;;;;;;;;;5073171;28;20067;-74
2022/10/28 14:05:06;;;;;;;22.15;6.38;;;;;;;;;;5071187;28;20462;-73
2022/10/28 14:07:33;;;;;;;24.40;5.63;;;;;;;;;;5072438;28;20017;-73
2022/10/28 14:10:17;;;;;;;19.75;5.30;;;;;;;;;;5073741;28;20469;-73
2022/10/28 14:12:49;;;;;;;23.10;5.68;;;;;;;;;;5071523;28;20119;-74
2022/10/28 14:15:16;;;;;;;23.35;5.45;;;;;;;;;;5072777;28;20092;-74
2022/10/28 14:17:45;;;;;;;29.02;6.18;;;;;;;;;;5073108;28;20028;-73
2022/10/28 14:20:30;;;;;;;23.73;6.10;;;;;;;;;;5073465;28;20031;-73
2022/10/28 14:22:56;;;;;;;24.08;5.75;;;;;;;;;;5072771;28;20055;-72
2022/10/28 14:25:40;;;;;;;15.52;5.05;;;;;;;;;;5072535;28;20417;-72
2022/10/28 14:28:46;;;;;;;28.15;5.90;;;;;;;;;;5073054;28;20107;-74
2022/10/28 14:31:11;;;;;;;22.40;5.55;;;;;;;;;;5014503;28;20033;-74
2022/10/28 14:33:43;;;;;;;28.10;5.97;;;;;;;;;;5015331;28;20037;-74
2022/10/28 14:36:18;;;;;;;23.05;6.20;;;;;;;;;;5042826;28;20029;-73
2022/10/28 14:39:03;;;;;;;25.02;5.47;;;;;;;;;;5073139;28;20032;-74
2022/10/28 14:41:45;;;;;;;25.20;5.80;;;;;;;;;;5071459;28;20066;-74
2022/10/28 14:44:11;;;;;;;21.83;5.38;;;;;;;;;;5071868;28;20035;-72